Time;durP1;ratioP1;P1;durP2;ratioP2;P2;SDS_P1;SDS_P2;PMS_P1;PMS_P2;Temp;Humidity;BMP_temperature;BMP_pressure;BME280_temperature;BME280_humidity;BME280_pressure;Samples;Min_cycle;Max_cycle;Signal;HPM_P1;HPM_P2
2022/01/02 00:00:17;;;;;;;9.43;5.85;;;11.20;99.90;;;;;;5073731;28;20507;-79
2022/01/02 00:02:48;;;;;;;12.77;6.40;;;11.20;99.90;;;;;;5071714;28;20080;-78
2022/01/02 00:05:16;;;;;;;13.00;6.30;;;11.20;99.90;;;;;;5072570;28;20048;-78
2022/01/02 00:07:45;;;;;;;12.05;6.50;;;11.20;99.90;;;;;;5071976;28;20052;-78
2022/01/02 00:10:12;;;;;;;16.05;6.90;;;11.20;99.90;;;;;;5054697;28;20045;-78
2022/01/02 00:12:49;;;;;;;9.63;5.72;;;11.20;99.90;;;;;;5055704;28;20045;-78
2022/01/02 00:15:18;;;;;;;13.00;5.97;;;11.20;99.90;;;;;;5072328;28;20087;-78
2022/01/02 00:17:45;;;;;;;10.77;6.13;;;11.20;99.90;;;;;;5072558;28;20500;-78
2022/01/02 00:20:13;;;;;;;15.25;6.20;;;11.20;99.90;;;;;;5072382;28;20116;-78
2022/01/02 00:22:41;;;;;;;18.92;6.75;;;11.20;99.90;;;;;;5054478;28;20040;-78
2022/01/02 00:25:22;;;;;;;10.23;6.90;;;11.20;99.90;;;;;;5072269;28;20443;-78
2022/01/02 00:27:49;;;;;;;11.48;6.25;;;11.30;99.90;;;;;;5072006;28;20483;-78
2022/01/02 00:30:16;;;;;;;18.35;7.22;;;11.30;99.90;;;;;;5071675;28;20388;-78
2022/01/02 00:32:47;;;;;;;15.23;6.47;;;11.30;99.90;;;;;;5071601;28;20052;-79
2022/01/02 00:35:13;;;;;;;15.43;6.93;;;11.20;99.90;;;;;;5073307;28;20032;-78
2022/01/02 00:37:40;;;;;;;18.05;7.53;;;11.20;99.90;;;;;;5071132;28;20541;-78
2022/01/02 00:40:06;;;;;;;14.98;7.03;;;11.30;99.90;;;;;;5071893;28;20076;-78
2022/01/02 00:42:39;;;;;;;15.02;7.15;;;11.20;99.90;;;;;;5073143;28;20040;-79
2022/01/02 00:45:12;;;;;;;16.35;6.72;;;11.20;99.90;;;;;;5072722;28;20048;-79
2022/01/02 00:47:47;;;;;;;14.15;6.85;;;11.20;99.90;;;;;;5055063;28;20562;-78
2022/01/02 00:50:20;;;;;;;11.70;6.95;;;11.20;99.90;;;;;;5072370;28;20422;-78
2022/01/02 00:52:48;;;;;;;14.57;6.63;;;11.20;99.90;;;;;;5070712;28;20052;-78
2022/01/02 00:55:19;;;;;;;21.50;8.27;;;11.20;99.90;;;;;;5073713;28;20063;-78
2022/01/02 00:58:00;;;;;;;17.83;7.32;;;11.20;99.90;;;;;;5058526;28;20481;-79
2022/01/02 01:00:26;;;;;;;20.15;7.18;;;11.20;99.90;;;;;;5075929;28;20444;-78
2022/01/02 01:02:56;;;;;;;16.02;7.45;;;11.20;99.90;;;;;;5075544;28;20080;-78
2022/01/02 01:05:26;;;;;;;12.88;6.40;;;11.20;99.90;;;;;;5075153;28;20047;-78
2022/01/02 01:08:01;;;;;;;14.63;6.68;;;11.20;99.90;;;;;;5075169;28;20055;-78
2022/01/02 01:10:29;;;;;;;15.13;6.88;;;11.20;99.90;;;;;;5075691;28;20049;-79
2022/01/02 01:12:59;;;;;;;20.77;7.70;;;11.20;99.90;;;;;;5075047;28;20373;-78
2022/01/02 01:15:28;;;;;;;16.60;7.47;;;11.20;99.90;;;;;;5075895;28;20123;-78
2022/01/02 01:17:55;;;;;;;14.55;6.70;;;11.20;99.90;;;;;;5075256;28;20045;-79
2022/01/02 01:20:22;;;;;;;20.60;6.78;;;11.20;99.90;;;;;;5074238;28;20071;-78
2022/01/02 01:22:49;;;;;;;20.20;7.32;;;11.20;99.90;;;;;;5075441;28;20045;-78
2022/01/02 01:25:17;;;;;;;13.88;6.93;;;11.20;99.90;;;;;;5075443;28;20399;-79
2022/01/02 01:27:48;;;;;;;18.70;7.07;;;11.20;99.90;;;;;;5074530;28;20044;-79
2022/01/02 01:30:17;;;;;;;19.40;8.23;;;11.30;99.90;;;;;;5075357;28;20083;-79
2022/01/02 01:32:43;;;;;;;14.00;7.18;;;11.30;99.90;;;;;;5074995;28;20037;-78
2022/01/02 01:35:11;;;;;;;17.58;7.30;;;11.30;99.90;;;;;;5058158;28;20041;-78
2022/01/02 01:37:37;;;;;;;23.70;7.97;;;11.30;99.90;;;;;;5075085;28;20056;-78
2022/01/02 01:40:05;;;;;;;15.85;8.00;;;11.30;99.90;;;;;;5074091;28;20109;-78
2022/01/02 01:42:36;;;;;;;17.67;7.85;;;11.30;99.90;;;;;;5074626;28;20056;-79
2022/01/02 01:45:28;;;;;;;20.92;9.27;;;11.30;99.90;;;;;;5076148;28;20063;-79
2022/01/02 01:47:54;;;;;;;18.88;7.65;;;11.30;99.90;;;;;;5074376;28;20088;-79
2022/01/02 01:50:29;;;;;;;18.65;8.60;;;11.20;99.90;;;;;;5074338;28;20083;-78
2022/01/02 01:52:55;;;;;;;17.17;8.68;;;11.20;99.90;;;;;;5057850;28;20078;-79
2022/01/02 01:55:21;;;;;;;21.02;8.40;;;11.20;99.90;;;;;;5074053;28;20044;-79
2022/01/02 01:57:47;;;;;;;21.77;8.98;;;11.20;99.90;;;;;;5074906;28;20449;-80
2022/01/02 02:00:16;;;;;;;23.45;8.82;;;11.20;99.90;;;;;;5074310;28;20532;-80
2022/01/02 02:02:42;;;;;;;19.85;9.07;;;11.20;99.90;;;;;;5074173;28;20111;-80
2022/01/02 02:05:09;;;;;;;21.70;9.50;;;11.20;99.90;;;;;;5107827;28;20391;-80
2022/01/02 02:07:40;;;;;;;22.75;9.85;;;11.20;99.90;;;;;;5074570;28;20387;-80
2022/01/02 02:10:22;;;;;;;20.70;9.57;;;11.20;99.90;;;;;;5073664;28;20078;-80
2022/01/02 02:12:50;;;;;;;25.52;10.27;;;11.20;99.90;;;;;;5074827;28;20391;-80
2022/01/02 02:15:17;;;;;;;25.15;9.82;;;11.10;99.90;;;;;;5074108;28;20755;-80
2022/01/02 02:17:45;;;;;;;20.08;9.45;;;11.10;99.90;;;;;;5073941;28;20049;-81
2022/01/02 02:20:19;;;;;;;26.98;10.25;;;11.10;99.90;;;;;;5074223;28;20044;-80
2022/01/02 02:22:48;;;;;;;21.90;10.27;;;11.10;99.90;;;;;;5073637;28;20049;-80
2022/01/02 02:25:20;;;;;;;24.25;9.75;;;11.10;99.90;;;;;;5074019;28;20048;-80
2022/01/02 02:27:49;;;;;;;26.25;9.82;;;11.10;99.90;;;;;;5074570;28;20443;-81
2022/01/02 02:30:14;;;;;;;22.25;9.55;;;11.10;99.90;;;;;;5073188;28;20048;-80
2022/01/02 02:32:40;;;;;;;22.35;9.60;;;11.10;99.90;;;;;;5073803;28;20043;-81
2022/01/02 02:35:06;;;;;;;23.42;10.25;;;11.10;99.90;;;;;;5073946;28;20052;-80
2022/01/02 02:37:32;;;;;;;25.77;10.60;;;11.10;99.90;;;;;;5073160;28;20040;-80
2022/01/02 02:39:58;;;;;;;27.08;10.73;;;11.10;99.90;;;;;;5056647;28;20115;-80
2022/01/02 02:42:41;;;;;;;34.10;10.35;;;11.10;99.90;;;;;;5074113;28;20036;-80
2022/01/02 02:50:45;;;;;;;18.42;10.20;;;11.10;99.90;;;;;;5073391;28;20373;-80
2022/01/02 02:53:11;;;;;;;22.73;9.60;;;11.00;99.90;;;;;;5076916;28;20041;-81
2022/01/02 02:55:43;;;;;;;26.20;10.88;;;11.10;99.90;;;;;;5059294;28;20098;-80
2022/01/02 02:58:37;;;;;;;28.17;10.10;;;11.00;99.90;;;;;;5056893;28;20391;-80
2022/01/02 03:00:55;;;;;;;27.00;11.00;;;11.00;99.90;;;;;;5072912;28;20055;-80
2022/01/02 03:03:21;;;;;;;33.70;10.85;;;11.00;99.90;;;;;;5073553;28;20052;-80
2022/01/02 03:05:46;;;;;;;26.23;11.70;;;11.00;99.90;;;;;;5072736;28;20056;-80
2022/01/02 03:08:12;;;;;;;23.27;9.90;;;11.00;99.90;;;;;;5056836;28;20059;-80
2022/01/02 03:10:38;;;;;;;21.20;9.93;;;11.00;99.90;;;;;;5073436;28;20146;-80
2022/01/02 03:13:04;;;;;;;36.05;11.77;;;11.00;99.90;;;;;;5072441;28;20499;-81
2022/01/02 03:15:29;;;;;;;22.48;10.02;;;11.00;99.90;;;;;;5056604;28;20052;-80
2022/01/02 03:17:55;;;;;;;26.88;10.35;;;11.00;99.90;;;;;;5072353;28;20041;-81
2022/01/02 03:20:36;;;;;;;25.50;10.02;;;11.00;99.90;;;;;;5072121;28;20114;-81
2022/01/02 03:23:02;;;;;;;25.52;10.38;;;11.00;99.90;;;;;;5071288;28;20480;-80
2022/01/02 03:25:28;;;;;;;23.13;9.90;;;11.00;99.90;;;;;;5056119;28;20041;-80
2022/01/02 03:27:54;;;;;;;27.73;9.40;;;11.00;99.90;;;;;;5054650;28;20044;-81
2022/01/02 03:30:23;;;;;;;21.00;9.68;;;11.00;99.90;;;;;;5073062;28;20075;-80
2022/01/02 03:32:48;;;;;;;33.88;10.00;;;11.00;99.90;;;;;;5053121;28;20044;-82
2022/01/02 03:35:14;;;;;;;23.00;9.80;;;11.00;99.90;;;;;;5072808;28;20056;-81
2022/01/02 03:37:40;;;;;;;28.27;10.27;;;11.00;99.90;;;;;;5056185;28;20036;-80
2022/01/02 03:40:08;;;;;;;28.58;10.73;;;11.10;99.90;;;;;;5055393;28;20202;-80
2022/01/02 03:42:35;;;;;;;28.17;10.25;;;11.10;99.90;;;;;;5072403;28;20611;-81
2022/01/02 03:45:02;;;;;;;24.50;9.98;;;11.10;99.90;;;;;;5072586;28;20041;-80
2022/01/02 03:47:28;;;;;;;25.45;9.85;;;11.10;99.90;;;;;;5055535;28;20044;-80
2022/01/02 03:49:57;;;;;;;26.23;9.27;;;11.00;99.90;;;;;;5055616;28;20555;-81
2022/01/02 03:52:24;;;;;;;26.58;9.85;;;11.10;99.90;;;;;;5055430;28;20048;-80
2022/01/02 03:54:51;;;;;;;29.58;9.70;;;11.10;99.90;;;;;;5071520;28;20127;-81
2022/01/02 03:57:17;;;;;;;20.38;9.35;;;11.10;99.90;;;;;;5056119;28;20048;-80
2022/01/02 03:59:42;;;;;;;22.25;9.07;;;11.10;99.90;;;;;;5071919;28;20040;-80
2022/01/02 04:02:08;;;;;;;31.05;10.02;;;11.10;99.90;;;;;;5071487;28;20036;-80
2022/01/02 04:04:34;;;;;;;29.70;9.57;;;11.10;99.90;;;;;;5055631;28;20602;-80
2022/01/02 04:07:00;;;;;;;23.67;9.52;;;11.10;99.90;;;;;;5072427;28;20033;-80
2022/01/02 04:09:25;;;;;;;31.48;9.07;;;11.10;99.90;;;;;;5071193;28;20404;-80
2022/01/02 04:11:51;;;;;;;23.58;9.25;;;11.10;99.90;;;;;;5072569;28;20040;-80
2022/01/02 04:14:17;;;;;;;21.60;10.00;;;11.10;99.90;;;;;;5072131;28;20051;-80
2022/01/02 04:16:42;;;;;;;27.02;9.00;;;11.10;99.90;;;;;;5071435;28;20190;-80
2022/01/02 04:19:08;;;;;;;32.45;9.30;;;11.20;99.90;;;;;;5072349;28;20040;-80
2022/01/02 04:21:34;;;;;;;24.40;9.55;;;11.20;99.90;;;;;;5070978;28;20509;-80
2022/01/02 04:24:00;;;;;;;23.52;8.25;;;11.20;99.90;;;;;;5054611;28;20097;-80
2022/01/02 04:26:26;;;;;;;30.27;9.30;;;11.20;99.90;;;;;;5071873;28;20045;-80
2022/01/02 04:29:05;;;;;;;18.90;8.88;;;11.20;99.90;;;;;;5054649;28;20055;-80
2022/01/02 04:31:31;;;;;;;32.28;9.35;;;11.20;99.90;;;;;;5071666;28;20109;-80
2022/01/02 04:33:57;;;;;;;25.25;9.65;;;11.20;99.90;;;;;;5055243;28;20060;-80
2022/01/02 04:36:22;;;;;;;24.33;8.23;;;11.20;99.90;;;;;;5071726;28;20049;-80
2022/01/02 04:38:48;;;;;;;37.58;9.15;;;11.20;99.90;;;;;;5071520;28;20052;-81
2022/01/02 04:41:14;;;;;;;23.52;9.13;;;11.30;99.90;;;;;;5071362;28;20048;-81
2022/01/02 04:43:40;;;;;;;25.75;8.18;;;11.30;99.90;;;;;;5071262;28;20044;-80
2022/01/02 04:46:06;;;;;;;27.10;8.45;;;11.30;99.90;;;;;;5071766;28;20090;-81
2022/01/02 04:48:32;;;;;;;34.33;8.93;;;11.30;99.90;;;;;;5072328;28;20049;-81
2022/01/02 04:50:58;;;;;;;29.17;8.90;;;11.30;99.90;;;;;;5071116;28;20392;-80
2022/01/02 04:53:24;;;;;;;28.65;7.93;;;11.30;99.90;;;;;;5071654;28;20075;-81
2022/01/02 04:55:50;;;;;;;20.92;8.30;;;11.30;99.90;;;;;;5072343;28;20052;-81
2022/01/02 04:58:16;;;;;;;29.17;9.85;;;11.30;99.90;;;;;;5070856;28;20048;-81
2022/01/02 05:00:42;;;;;;;27.60;8.38;;;11.30;99.90;;;;;;5055150;28;20040;-81
2022/01/02 05:03:08;;;;;;;23.58;7.78;;;11.30;99.90;;;;;;5055235;28;20052;-81
2022/01/02 05:05:33;;;;;;;24.17;8.00;;;11.30;99.90;;;;;;5054163;28;20403;-80
2022/01/02 05:07:59;;;;;;;30.83;8.77;;;11.30;99.90;;;;;;5055210;28;20036;-80
2022/01/02 05:10:25;;;;;;;22.73;8.30;;;11.30;99.90;;;;;;5071495;28;20044;-80
2022/01/02 05:12:51;;;;;;;22.75;8.05;;;11.30;99.90;;;;;;5071111;28;20080;-80
2022/01/02 05:15:17;;;;;;;29.23;7.80;;;11.30;99.90;;;;;;5071744;28;20048;-81
2022/01/02 05:17:45;;;;;;;18.67;7.30;;;11.30;99.90;;;;;;5071905;28;20040;-80
2022/01/02 05:20:11;;;;;;;21.02;7.13;;;11.30;99.90;;;;;;5054104;28;20536;-80
2022/01/02 05:22:37;;;;;;;20.90;6.72;;;11.40;99.90;;;;;;5071607;28;20125;-80
2022/01/02 05:25:04;;;;;;;20.70;6.72;;;11.30;99.90;;;;;;5070849;28;20075;-80
2022/01/02 05:27:30;;;;;;;26.27;6.78;;;11.30;99.90;;;;;;5054999;28;20055;-81
2022/01/02 05:29:56;;;;;;;22.35;6.22;;;11.30;99.90;;;;;;5071398;28;20037;-80
2022/01/02 05:32:22;;;;;;;15.57;6.45;;;11.40;99.90;;;;;;5071056;28;20044;-80
2022/01/02 05:34:48;;;;;;;16.38;5.57;;;11.40;99.90;;;;;;5054090;28;20052;-80
2022/01/02 05:37:13;;;;;;;17.10;5.75;;;11.40;99.90;;;;;;5071499;28;20053;-80
2022/01/02 05:39:39;;;;;;;23.83;6.05;;;11.50;99.90;;;;;;5053734;28;20048;-81
2022/01/02 05:42:06;;;;;;;20.30;5.65;;;11.50;99.90;;;;;;5074362;28;20048;-80
2022/01/02 05:44:31;;;;;;;18.85;5.70;;;11.50;99.90;;;;;;5058456;28;20427;-81
2022/01/02 05:46:57;;;;;;;25.50;5.68;;;11.50;99.90;;;;;;5074392;28;20105;-80
2022/01/02 05:49:23;;;;;;;15.23;4.78;;;11.60;99.90;;;;;;5057903;28;20036;-80
2022/01/02 05:51:49;;;;;;;19.00;5.63;;;11.50;99.90;;;;;;5058036;28;20102;-80
2022/01/02 05:54:15;;;;;;;22.35;6.38;;;11.60;99.90;;;;;;5056927;28;20044;-80
2022/01/02 05:56:41;;;;;;;18.40;5.60;;;11.60;99.90;;;;;;5074496;28;20037;-80
2022/01/02 05:59:06;;;;;;;14.77;4.80;;;11.60;99.90;;;;;;5074679;28;20051;-80
2022/01/02 06:01:32;;;;;;;24.88;5.88;;;11.60;99.90;;;;;;5073743;28;20094;-80
2022/01/02 06:03:58;;;;;;;19.45;5.82;;;11.50;99.90;;;;;;5074644;28;20131;-81
2022/01/02 06:06:24;;;;;;;23.30;6.47;;;11.60;99.90;;;;;;5074469;28;20079;-80
2022/01/02 06:08:49;;;;;;;20.73;5.60;;;11.60;99.90;;;;;;5057140;28;20055;-80
2022/01/02 06:11:15;;;;;;;23.27;6.38;;;11.60;99.90;;;;;;5074062;28;20440;-80
2022/01/02 06:13:42;;;;;;;22.35;6.72;;;11.60;99.90;;;;;;5074235;28;20052;-80
2022/01/02 06:16:10;;;;;;;21.70;5.80;;;11.60;99.90;;;;;;5073384;28;20076;-80
2022/01/02 06:18:36;;;;;;;20.73;5.50;;;11.60;99.90;;;;;;5074585;28;20518;-80
2022/01/02 06:21:02;;;;;;;24.15;5.80;;;11.60;99.90;;;;;;5074233;28;20036;-80
2022/01/02 06:23:28;;;;;;;16.38;6.05;;;11.60;99.90;;;;;;5056430;28;20037;-80
2022/01/02 06:25:53;;;;;;;15.70;5.32;;;11.60;99.90;;;;;;5074366;28;20048;-80
2022/01/02 06:28:19;;;;;;;24.67;5.70;;;11.60;99.90;;;;;;5073717;28;20472;-80
2022/01/02 06:30:45;;;;;;;18.13;5.53;;;11.60;99.90;;;;;;5073687;28;20044;-81
2022/01/02 06:33:10;;;;;;;14.73;4.82;;;11.60;99.90;;;;;;5074134;28;20051;-80
2022/01/02 06:35:36;;;;;;;16.83;4.50;;;11.70;99.90;;;;;;5073234;28;20131;-81
2022/01/02 06:38:28;;;;;;;15.40;5.03;;;11.60;99.90;;;;;;5073449;28;20128;-80
2022/01/02 06:40:54;;;;;;;19.35;4.40;;;11.70;99.90;;;;;;5056016;28;20555;-80
2022/01/02 06:43:20;;;;;;;20.10;5.50;;;11.70;99.90;;;;;;5072645;28;20051;-80
2022/01/02 06:45:46;;;;;;;12.30;4.72;;;11.70;99.90;;;;;;5073953;28;20047;-80
2022/01/02 06:48:13;;;;;;;18.20;4.95;;;11.70;99.90;;;;;;5073939;28;20040;-80
2022/01/02 06:50:39;;;;;;;17.90;4.93;;;11.70;99.90;;;;;;5072606;28;20121;-81
2022/01/02 06:53:05;;;;;;;16.88;4.82;;;11.70;99.90;;;;;;5073367;28;20453;-80
2022/01/02 06:55:31;;;;;;;21.25;6.32;;;11.70;99.90;;;;;;5057198;28;20491;-80
2022/01/02 06:57:57;;;;;;;16.20;4.90;;;11.70;99.90;;;;;;5072548;28;20047;-80
2022/01/02 07:00:23;;;;;;;23.13;4.47;;;11.70;99.90;;;;;;5073909;28;20040;-80
2022/01/02 07:02:48;;;;;;;16.13;4.20;;;11.70;99.90;;;;;;5073303;28;20131;-80
2022/01/02 07:05:14;;;;;;;18.10;4.78;;;11.80;99.90;;;;;;5056028;28;20055;-81
2022/01/02 07:07:45;;;;;;;10.25;3.70;;;11.80;99.90;;;;;;5072997;28;20044;-79
2022/01/02 07:10:12;;;;;;;15.73;4.38;;;11.80;99.90;;;;;;5073459;28;20470;-80
2022/01/02 07:12:39;;;;;;;12.48;3.53;;;11.80;99.90;;;;;;5072563;28;20063;-80
2022/01/02 07:15:06;;;;;;;12.40;3.70;;;11.80;99.90;;;;;;5056193;28;20068;-79
2022/01/02 07:17:31;;;;;;;16.13;4.63;;;11.90;99.90;;;;;;5055851;28;20040;-80
2022/01/02 07:19:57;;;;;;;13.85;3.80;;;11.80;99.90;;;;;;5072800;28;20056;-80
2022/01/02 07:22:23;;;;;;;10.38;3.72;;;11.80;99.90;;;;;;5056500;28;20037;-80
2022/01/02 07:24:51;;;;;;;14.98;3.53;;;11.80;99.90;;;;;;5072367;28;20195;-80
2022/01/02 07:27:21;;;;;;;12.20;4.10;;;11.90;99.90;;;;;;5056235;28;20106;-81
2022/01/02 07:29:48;;;;;;;13.35;3.70;;;11.90;99.90;;;;;;5073096;28;20044;-80
2022/01/02 07:32:15;;;;;;;10.65;3.80;;;11.90;99.90;;;;;;5072564;28;20392;-80
2022/01/02 07:34:42;;;;;;;13.60;3.30;;;11.80;99.90;;;;;;5072778;28;20056;-80
2022/01/02 07:37:08;;;;;;;11.90;3.47;;;11.80;99.90;;;;;;5055873;28;20126;-79
2022/01/02 07:39:34;;;;;;;12.35;3.80;;;11.90;99.90;;;;;;5071305;28;20510;-80
2022/01/02 07:42:00;;;;;;;12.23;3.20;;;11.80;99.90;;;;;;5055835;28;20157;-79
2022/01/02 07:44:25;;;;;;;14.90;3.75;;;11.80;99.90;;;;;;5072689;28;20174;-79
2022/01/02 07:46:51;;;;;;;12.43;3.80;;;11.80;99.90;;;;;;5071753;28;20514;-79
2022/01/02 07:49:17;;;;;;;11.27;3.45;;;11.80;99.90;;;;;;5072466;28;20044;-80
2022/01/02 07:51:43;;;;;;;15.38;4.10;;;11.80;99.90;;;;;;5072763;28;20048;-80
2022/01/02 07:54:08;;;;;;;18.33;4.47;;;11.80;99.90;;;;;;5070771;28;20067;-80
2022/01/02 07:56:34;;;;;;;12.00;3.85;;;11.80;99.90;;;;;;5055545;28;20048;-79
2022/01/02 07:59:00;;;;;;;14.70;4.00;;;11.80;99.90;;;;;;5072222;28;20084;-79
2022/01/02 08:01:26;;;;;;;14.80;4.30;;;11.70;99.90;;;;;;5070628;28;20522;-80
2022/01/02 08:03:52;;;;;;;13.23;4.30;;;11.80;99.90;;;;;;5071561;28;20047;-79
2022/01/02 08:06:18;;;;;;;18.35;4.20;;;11.70;99.90;;;;;;5072572;28;20040;-80
2022/01/02 08:08:45;;;;;;;15.35;4.50;;;11.70;99.90;;;;;;5071458;28;20091;-80
2022/01/02 08:11:15;;;;;;;8.60;4.03;;;11.70;99.90;;;;;;5072161;28;20119;-79
2022/01/02 08:13:41;;;;;;;10.63;3.78;;;11.70;99.90;;;;;;5071653;28;20098;-79
2022/01/02 08:16:07;;;;;;;11.45;4.22;;;11.70;99.90;;;;;;5054691;28;20051;-79
2022/01/02 08:18:33;;;;;;;16.27;4.13;;;11.70;99.90;;;;;;5055492;28;20044;-80
2022/01/02 08:20:58;;;;;;;16.38;4.35;;;11.70;99.90;;;;;;5071813;28;20418;-79
2022/01/02 08:23:24;;;;;;;12.95;3.97;;;11.70;99.90;;;;;;5072024;28;20450;-80
2022/01/02 08:25:50;;;;;;;10.20;4.20;;;11.70;99.90;;;;;;5072557;28;20052;-79
2022/01/02 08:28:16;;;;;;;14.02;4.57;;;11.70;99.90;;;;;;5054864;28;20376;-79
2022/01/02 08:30:43;;;;;;;13.02;4.25;;;11.60;99.90;;;;;;5072409;28;20079;-79
2022/01/02 08:33:10;;;;;;;15.05;4.40;;;11.60;99.90;;;;;;5071784;28;20052;-80
2022/01/02 08:35:37;;;;;;;10.95;4.30;;;11.60;99.90;;;;;;5071997;28;20117;-80
2022/01/02 08:38:03;;;;;;;13.57;4.30;;;11.60;99.90;;;;;;5072143;28;20403;-80
2022/01/02 08:40:29;;;;;;;13.20;4.50;;;11.60;99.90;;;;;;5072437;28;20044;-80
2022/01/02 08:42:55;;;;;;;16.48;4.70;;;11.50;99.90;;;;;;5071532;28;20626;-79
2022/01/02 08:45:21;;;;;;;16.77;4.38;;;11.50;99.90;;;;;;5072153;28;20060;-80
2022/01/02 08:47:46;;;;;;;13.88;4.65;;;11.50;99.90;;;;;;5072259;28;20037;-79
2022/01/02 08:50:12;;;;;;;14.98;4.95;;;11.50;99.90;;;;;;5054580;28;20060;-80
2022/01/02 08:52:38;;;;;;;15.75;4.55;;;11.50;99.90;;;;;;5071699;28;20041;-80
2022/01/02 08:55:05;;;;;;;10.10;4.28;;;11.40;99.90;;;;;;5071697;28;20504;-80
2022/01/02 08:57:31;;;;;;;11.00;5.10;;;11.50;99.90;;;;;;5072333;28;20557;-80
2022/01/02 08:59:56;;;;;;;20.83;5.53;;;11.40;99.90;;;;;;5055424;28;20052;-81
2022/01/02 09:02:22;;;;;;;14.80;5.28;;;11.40;99.90;;;;;;5071974;28;20041;-80
2022/01/02 09:04:48;;;;;;;13.02;4.45;;;11.40;99.90;;;;;;5071511;28;20044;-80
2022/01/02 09:07:14;;;;;;;14.63;4.97;;;11.40;99.90;;;;;;5071501;28;20507;-80
2022/01/02 09:09:40;;;;;;;11.73;4.55;;;11.40;99.90;;;;;;5071990;28;20083;-80
2022/01/02 09:12:07;;;;;;;10.60;4.60;;;11.40;99.90;;;;;;5071002;28;20048;-80
2022/01/02 09:14:33;;;;;;;15.32;5.43;;;11.40;99.90;;;;;;5071685;28;20499;-80
2022/01/02 09:16:59;;;;;;;12.50;4.88;;;11.40;99.90;;;;;;5074138;28;20045;-80
2022/01/02 09:19:24;;;;;;;11.02;6.03;;;11.40;99.90;;;;;;5075309;28;20093;-80
2022/01/02 09:21:50;;;;;;;8.60;4.70;;;11.40;99.90;;;;;;5075670;28;20445;-81
2022/01/02 09:24:16;;;;;;;15.45;4.65;;;11.40;99.90;;;;;;5074759;28;20040;-81
2022/01/02 09:26:42;;;;;;;11.98;5.18;;;11.30;99.90;;;;;;5058881;28;20049;-80
2022/01/02 09:29:08;;;;;;;9.90;4.65;;;11.30;99.90;;;;;;5075398;28;20051;-80
2022/01/02 09:31:34;;;;;;;10.00;4.55;;;11.40;99.90;;;;;;5074284;28;20226;-80
2022/01/02 09:33:59;;;;;;;12.48;4.72;;;11.40;99.90;;;;;;5075163;28;20098;-80
2022/01/02 09:36:25;;;;;;;12.85;5.15;;;11.40;99.90;;;;;;5058502;28;20076;-80
2022/01/02 09:38:52;;;;;;;11.57;4.60;;;11.40;99.90;;;;;;5074190;28;20055;-80
2022/01/02 09:41:19;;;;;;;9.88;5.05;;;11.40;99.90;;;;;;5075570;28;20040;-80
2022/01/02 09:43:47;;;;;;;15.80;5.25;;;11.40;99.90;;;;;;5058668;28;20436;-79
2022/01/02 09:46:20;;;;;;;13.55;5.00;;;11.40;99.90;;;;;;5074595;28;20186;-80
2022/01/02 09:48:48;;;;;;;12.50;4.80;;;11.30;99.90;;;;;;5058838;28;20083;-80
2022/01/02 09:51:19;;;;;;;11.00;4.88;;;11.30;99.90;;;;;;5058075;28;20044;-80
2022/01/02 09:53:46;;;;;;;10.45;5.63;;;11.40;99.90;;;;;;5073717;28;20507;-80
2022/01/02 09:56:14;;;;;;;10.27;4.35;;;11.30;99.90;;;;;;5058026;28;20119;-80
2022/01/02 09:58:42;;;;;;;12.48;5.28;;;11.30;99.90;;;;;;5074841;28;20052;-80
2022/01/02 10:01:18;;;;;;;11.85;4.53;;;11.40;99.90;;;;;;5074113;28;20041;-81
2022/01/02 10:03:46;;;;;;;8.68;4.93;;;11.40;99.90;;;;;;5074978;28;20560;-80
2022/01/02 10:06:13;;;;;;;13.38;5.20;;;11.40;99.90;;;;;;5057544;28;20033;-81
2022/01/02 10:08:38;;;;;;;12.18;5.68;;;11.40;99.90;;;;;;5074316;28;20076;-80
2022/01/02 10:11:05;;;;;;;12.32;4.65;;;11.40;99.90;;;;;;5074886;28;20137;-80
2022/01/02 10:13:48;;;;;;;14.88;5.53;;;11.50;99.90;;;;;;5073751;28;20056;-80
2022/01/02 10:16:22;;;;;;;14.38;4.25;;;11.50;99.90;;;;;;5057999;28;20040;-79
2022/01/02 10:18:49;;;;;;;13.30;4.80;;;11.50;99.90;;;;;;5074936;28;20041;-81
2022/01/02 10:21:38;;;;;;;14.55;5.38;;;11.50;99.90;;;;;;5073639;28;20098;-79
2022/01/02 10:24:17;;;;;;;8.65;4.40;;;11.50;99.90;;;;;;5074195;28;20078;-80
2022/01/02 10:27:02;;;;;;;13.13;5.32;;;11.50;99.90;;;;;;5057764;28;20376;-80
2022/01/02 10:29:39;;;;;;;18.55;4.40;;;11.50;99.90;;;;;;5073639;28;20372;-80
2022/01/02 10:32:41;;;;;;;15.48;4.60;;;11.50;99.90;;;;;;5074318;28;20051;-80
2022/01/02 10:35:09;;;;;;;16.20;4.28;;;11.50;99.90;;;;;;5073223;28;20131;-80
2022/01/02 10:37:35;;;;;;;14.93;5.05;;;11.50;99.90;;;;;;5073860;28;20048;-80
2022/01/02 10:40:01;;;;;;;14.07;5.03;;;11.50;99.90;;;;;;5057643;28;20396;-78
2022/01/02 10:42:27;;;;;;;15.35;4.80;;;11.50;99.90;;;;;;5073345;28;20041;-79
2022/01/02 10:44:53;;;;;;;13.50;4.97;;;11.50;99.90;;;;;;5074243;28;20040;-80
2022/01/02 10:47:21;;;;;;;12.98;4.30;;;11.50;99.90;;;;;;5073872;28;20407;-79
2022/01/02 10:50:03;;;;;;;13.20;4.32;;;11.50;99.90;;;;;;5056421;28;20093;-80
2022/01/02 10:52:40;;;;;;;15.50;4.25;;;11.50;99.90;;;;;;5073826;28;20568;-79
2022/01/02 10:55:19;;;;;;;11.18;4.20;;;11.50;99.90;;;;;;5073814;28;20044;-79
2022/01/02 10:57:50;;;;;;;12.07;4.32;;;11.50;99.90;;;;;;5073105;28;20041;-79
2022/01/02 11:00:17;;;;;;;17.15;5.07;;;11.50;99.90;;;;;;5057579;28;20395;-80
2022/01/02 11:02:44;;;;;;;12.25;4.70;;;11.50;99.90;;;;;;5072962;28;20040;-80
2022/01/02 11:05:12;;;;;;;12.18;4.82;;;11.50;99.90;;;;;;5056917;28;20045;-80
2022/01/02 11:07:49;;;;;;;20.15;4.47;;;11.60;99.90;;;;;;5056743;28;20487;-80
2022/01/02 11:10:20;;;;;;;11.75;4.13;;;11.50;99.90;;;;;;5072682;28;20512;-80
2022/01/02 11:12:47;;;;;;;15.40;4.90;;;11.60;99.90;;;;;;5073645;28;20087;-80
2022/01/02 11:15:15;;;;;;;16.80;4.30;;;11.60;99.90;;;;;;5073517;28;20060;-79
2022/01/02 11:17:41;;;;;;;11.52;4.50;;;11.60;99.90;;;;;;5072843;28;20037;-80
2022/01/02 11:20:16;;;;;;;10.80;4.30;;;11.60;99.90;;;;;;5073612;28;20052;-80
2022/01/02 11:22:45;;;;;;;8.75;4.10;;;11.60;99.90;;;;;;5073359;28;20048;-79
2022/01/02 11:25:38;;;;;;;12.75;4.72;;;11.60;99.90;;;;;;5072424;28;20041;-79
2022/01/02 11:28:09;;;;;;;19.40;4.45;;;11.60;99.90;;;;;;5073167;28;20051;-79
2022/01/02 11:30:36;;;;;;;13.68;4.05;;;11.60;99.90;;;;;;5072857;28;20114;-79
2022/01/02 11:33:05;;;;;;;12.15;4.40;;;11.60;99.90;;;;;;5073135;28;20044;-80
2022/01/02 11:35:32;;;;;;;15.10;4.47;;;11.60;99.90;;;;;;5056271;28;20534;-79
2022/01/02 11:38:02;;;;;;;16.05;4.07;;;11.60;99.90;;;;;;5071624;28;20048;-79
2022/01/02 11:40:49;;;;;;;21.13;5.40;;;11.60;99.90;;;;;;5072602;28;20044;-80
2022/01/02 11:43:48;;;;;;;12.10;3.88;;;11.60;99.90;;;;;;5056416;28;20089;-80
2022/01/02 11:46:27;;;;;;;18.45;4.35;;;11.60;99.90;;;;;;5055673;28;20071;-78
2022/01/02 11:49:05;;;;;;;12.63;3.55;;;11.50;99.90;;;;;;5073060;28;20086;-79
2022/01/02 11:52:06;;;;;;;17.00;4.05;;;11.60;99.90;;;;;;5072972;28;20043;-78
2022/01/02 11:54:41;;;;;;;19.35;3.90;;;11.60;99.90;;;;;;5086509;28;20055;-79
2022/01/02 11:57:18;;;;;;;13.35;3.70;;;11.50;99.90;;;;;;5052956;28;20133;-78
2022/01/02 11:59:47;;;;;;;14.38;3.60;;;11.50;99.90;;;;;;5051930;28;20080;-79
2022/01/02 12:02:18;;;;;;;16.60;3.38;;;11.50;99.90;;;;;;5052531;28;20047;-79
2022/01/02 12:05:01;;;;;;;18.48;4.63;;;11.50;99.90;;;;;;5074826;28;20048;-77
2022/01/02 12:07:33;;;;;;;14.30;3.60;;;11.50;99.90;;;;;;5071368;28;20048;-79
2022/01/02 12:10:17;;;;;;;15.70;4.22;;;11.40;99.90;;;;;;5072378;28;20086;-78
2022/01/02 12:13:17;;;;;;;16.35;4.28;;;11.40;99.90;;;;;;5072512;28;20052;-78
2022/01/02 12:16:02;;;;;;;20.20;3.95;;;11.50;99.90;;;;;;5072613;28;20496;-78
2022/01/02 12:18:29;;;;;;;17.33;4.57;;;11.50;99.90;;;;;;5072309;28;20052;-78
2022/01/02 12:20:57;;;;;;;18.67;3.97;;;11.40;99.90;;;;;;5071748;28;20040;-78
2022/01/02 12:23:33;;;;;;;13.35;3.60;;;11.50;99.90;;;;;;5055400;28;20546;-77
2022/01/02 12:26:39;;;;;;;16.65;3.28;;;11.50;99.90;;;;;;5072412;28;20083;-77
2022/01/02 12:29:06;;;;;;;21.92;5.35;;;11.50;99.90;;;;;;5067347;28;20114;-78
2022/01/02 12:31:38;;;;;;;18.92;3.00;;;11.50;99.90;;;;;;5034556;28;20076;-79
2022/01/02 12:34:22;;;;;;;17.58;3.70;;;11.50;99.90;;;;;;5052130;28;20229;-78
2022/01/02 12:36:50;;;;;;;20.63;3.83;;;11.60;99.90;;;;;;5055285;28;20510;-80
2022/01/02 12:39:27;;;;;;;20.33;4.38;;;11.60;99.90;;;;;;5071848;28;20056;-77
2022/01/02 12:41:54;;;;;;;18.17;3.63;;;11.60;99.90;;;;;;5071327;28;20044;-77
2022/01/02 12:44:29;;;;;;;15.07;3.58;;;11.60;99.90;;;;;;5055462;28;20080;-78
2022/01/02 12:46:57;;;;;;;21.33;3.92;;;11.60;99.90;;;;;;5055528;28;20045;-78
2022/01/02 12:49:25;;;;;;;13.82;3.30;;;11.60;99.90;;;;;;5071920;28;20127;-77